»·PEaware :: N858S KSEA-KSMF

N858S :: KSEA-KSMF

FLIGHT INFORMATION

Flight Status: Arrived
Operator: Privately registered:
United States
More flights under this callsign
Pilot: Nelson I. (120)
Aircraft: CIRRUS VISIONJET
(SF50)
More flights by this aircraft type
Origin: KSEA Seattle-Tacoma Intl
United States
Destination: KSMF Sacramento Intl
United States
More flights between these airports :: More routes between these airports
Route: SUMMA2 SUMMA JINMO LMT TUDOR2
File this flight plan on PilotEdge
Remarks:
Altitude:
(Current/Filed)
21,000ft
Speed:
(Current/Filed)
250kts
Departed: 11-Feb-21 06:35 PM
Arrived: 11-Feb-21 08:46 PM
Distance/Time
Traveled:
527nm/2:11
Distance/Time
To Go:
Arrived

Flight Plot

Page will automatically refresh every two minutes.

Flight plan parsing failed; only flown route is shown


Map Options




Map Legend


Flown Route
Filed Route
Departure Airport
Arrival Airport
Navaid (VOR, NDB)
Fix

Horizontal Profiles

Position Reports

Time Latitude Longitude Heading Altitude Ground
Speed
11-Feb-21 18:12 47.439493 -122.315518 61 351ft 0kts
11-Feb-21 18:13 47.439493 -122.315518 61 351ft 0kts
11-Feb-21 18:13 47.439493 -122.315518 61 351ft 0kts
11-Feb-21 18:15 47.439493 -122.315518 61 351ft 0kts
11-Feb-21 18:16 47.439493 -122.315518 61 351ft 0kts
11-Feb-21 18:16 47.439493 -122.315518 61 351ft 0kts
11-Feb-21 18:17 47.439493 -122.315518 61 351ft 0kts
11-Feb-21 18:18 47.439493 -122.315518 61 351ft 0kts
11-Feb-21 18:19 47.439493 -122.315518 61 351ft 0kts
11-Feb-21 18:20 47.439493 -122.315518 61 351ft 0kts
11-Feb-21 18:21 47.439493 -122.315518 61 351ft 0kts
11-Feb-21 18:22 47.439493 -122.315518 61 351ft 0kts
11-Feb-21 18:23 47.439493 -122.315518 61 351ft 0kts
11-Feb-21 18:24 47.439493 -122.315518 61 351ft 0kts
11-Feb-21 18:25 47.439493 -122.315518 61 351ft 0kts
11-Feb-21 18:26 47.439493 -122.315518 61 351ft 0kts
11-Feb-21 18:27 47.439493 -122.315518 61 351ft 0kts
11-Feb-21 18:28 47.439493 -122.315518 61 351ft 0kts
11-Feb-21 18:29 47.439493 -122.315518 61 351ft 0kts
11-Feb-21 18:30 47.439493 -122.315518 61 351ft 0kts
11-Feb-21 18:31 47.440588 -122.315477 306 355ft 7kts
11-Feb-21 18:32 47.440669 -122.316584 269 351ft 0kts
11-Feb-21 18:33 47.442245 -122.318029 2 346ft 40kts
11-Feb-21 18:34 47.472233 -122.312728 11 2732ft 125kts
11-Feb-21 18:35 47.507988 -122.309833 3 5541ft 138kts
11-Feb-21 18:36 47.535494 -122.309795 3 7834ft 84kts
11-Feb-21 18:37 47.555878 -122.303973 55 8586ft 122kts
11-Feb-21 18:38 47.536312 -122.274810 196 9625ft 183kts
11-Feb-21 18:39 47.481149 -122.284693 170 10598ft 245kts
11-Feb-21 18:40 47.415038 -122.261876 169 11077ft 277kts
11-Feb-21 18:41 47.343223 -122.236877 169 12106ft 276kts
11-Feb-21 18:42 47.282115 -122.215668 170 12912ft 277kts
11-Feb-21 18:43 47.207334 -122.189781 170 13905ft 277kts
11-Feb-21 18:44 47.132113 -122.163815 171 14902ft 279kts
11-Feb-21 18:45 47.053296 -122.136697 170 15006ft 304kts
11-Feb-21 18:46 46.973042 -122.109133 171 15490ft 291kts
11-Feb-21 18:47 46.894924 -122.082385 171 16489ft 288kts
11-Feb-21 18:48 46.817158 -122.055867 172 17480ft 288kts
11-Feb-21 18:49 46.740726 -122.029880 172 18454ft 289kts
11-Feb-21 18:50 46.662804 -122.003462 172 19447ft 289kts
11-Feb-21 18:51 46.586617 -122.007040 205 20438ft 272kts
11-Feb-21 18:52 46.515583 -122.045321 206 21023ft 284kts
11-Feb-21 18:53 46.438492 -122.088077 206 21018ft 304kts
11-Feb-21 18:54 46.356167 -122.122331 184 21022ft 323kts
11-Feb-21 18:55 46.265678 -122.114508 180 21017ft 329kts
11-Feb-21 18:56 46.174220 -122.105289 180 21018ft 330kts
11-Feb-21 18:57 46.082632 -122.096081 180 21020ft 330kts
11-Feb-21 18:58 45.991325 -122.086933 180 21037ft 330kts
11-Feb-21 18:59 45.899916 -122.077805 180 21053ft 329kts
11-Feb-21 19:00 45.810269 -122.068875 180 21021ft 321kts
11-Feb-21 19:01 45.722140 -122.060136 180 21023ft 317kts
11-Feb-21 19:02 45.634858 -122.051505 179 21024ft 315kts
11-Feb-21 19:03 45.547649 -122.042907 179 21023ft 314kts
11-Feb-21 19:04 45.460812 -122.034345 179 21025ft 313kts
11-Feb-21 19:05 45.374067 -122.025871 179 21025ft 313kts
11-Feb-21 19:06 45.287315 -122.017397 179 21022ft 313kts
11-Feb-21 19:07 45.200480 -122.008940 179 21023ft 312kts
11-Feb-21 19:08 45.114264 -122.000569 179 21022ft 312kts
11-Feb-21 19:09 45.027815 -121.992201 179 21020ft 311kts
11-Feb-21 19:10 44.941435 -121.983863 179 21018ft 311kts
11-Feb-21 19:11 44.855341 -121.975579 179 21021ft 310kts
11-Feb-21 19:12 44.769144 -121.967312 179 20996ft 311kts
11-Feb-21 19:13 44.683209 -121.959090 179 20991ft 310kts
11-Feb-21 19:14 44.596976 -121.950868 179 20993ft 310kts
11-Feb-21 19:15 44.511184 -121.942711 179 20991ft 310kts
11-Feb-21 19:16 44.425417 -121.934580 179 20994ft 309kts
11-Feb-21 19:17 44.339588 -121.926468 179 20989ft 309kts
11-Feb-21 19:18 44.254068 -121.918408 179 20993ft 309kts
11-Feb-21 19:19 44.167358 -121.910265 179 21016ft 317kts
11-Feb-21 19:20 44.078865 -121.901971 179 21023ft 320kts
11-Feb-21 19:21 43.990036 -121.893672 179 21052ft 321kts
11-Feb-21 19:22 43.901110 -121.885391 179 21080ft 321kts
11-Feb-21 19:23 43.812139 -121.877131 179 21113ft 320kts
11-Feb-21 19:24 43.723320 -121.868903 180 21022ft 316kts
11-Feb-21 19:25 43.636713 -121.860912 180 21024ft 309kts
11-Feb-21 19:26 43.551585 -121.853081 180 21022ft 307kts
11-Feb-21 19:27 43.466518 -121.845276 180 21023ft 307kts
11-Feb-21 19:28 43.381456 -121.837491 180 21022ft 307kts
11-Feb-21 19:29 43.296271 -121.829716 180 21017ft 307kts
11-Feb-21 19:30 43.210887 -121.821947 180 21021ft 307kts
11-Feb-21 19:31 43.125756 -121.814221 180 21020ft 307kts
11-Feb-21 19:32 43.040790 -121.806530 180 21022ft 307kts
11-Feb-21 19:33 42.955748 -121.798860 180 20967ft 308kts
11-Feb-21 19:34 42.869972 -121.791141 180 20862ft 309kts
11-Feb-21 19:35 42.786095 -121.783613 180 20862ft 307kts
11-Feb-21 19:36 42.699717 -121.775881 180 20863ft 306kts
11-Feb-21 19:37 42.614905 -121.768312 180 20859ft 306kts
11-Feb-21 19:38 42.530383 -121.760790 181 20860ft 305kts
11-Feb-21 19:39 42.446199 -121.753316 181 20858ft 305kts
11-Feb-21 19:40 42.361610 -121.745827 181 20858ft 305kts
11-Feb-21 19:41 42.279367 -121.738564 181 20860ft 304kts
11-Feb-21 19:42 42.196788 -121.731295 181 20859ft 304kts
11-Feb-21 19:43 42.113595 -121.727295 184 20860ft 302kts
11-Feb-21 19:44 42.030691 -121.726870 184 20860ft 302kts
11-Feb-21 19:46 41.948373 -121.726475 184 20858ft 302kts
11-Feb-21 19:47 41.865108 -121.726079 184 20857ft 301kts
11-Feb-21 19:48 41.781538 -121.725681 184 20859ft 301kts
11-Feb-21 19:49 41.698399 -121.725286 185 20856ft 301kts
11-Feb-21 19:50 41.617106 -121.724900 185 20858ft 301kts
11-Feb-21 19:51 41.537339 -121.724522 185 20857ft 300kts
11-Feb-21 19:52 41.455379 -121.724135 185 20857ft 300kts
11-Feb-21 19:53 41.372838 -121.723744 185 20890ft 299kts
11-Feb-21 19:54 41.290676 -121.723362 185 20918ft 299kts
11-Feb-21 19:55 41.207611 -121.722972 185 20916ft 299kts
11-Feb-21 19:56 41.124640 -121.722584 185 20914ft 299kts
11-Feb-21 19:57 41.041569 -121.722197 185 20911ft 298kts
11-Feb-21 19:58 40.958821 -121.721810 185 20936ft 297kts
11-Feb-21 19:58 40.890003 -121.721493 185 20940ft 298kts
11-Feb-21 20:00 40.793324 -121.721048 185 20942ft 298kts
11-Feb-21 20:01 40.710420 -121.720664 185 20944ft 298kts
11-Feb-21 20:01 40.641620 -121.720349 185 20917ft 298kts
11-Feb-21 20:03 40.545087 -121.719904 185 20917ft 297kts
11-Feb-21 20:04 40.462685 -121.719527 185 20916ft 297kts
11-Feb-21 20:04 40.393734 -121.715429 182 20914ft 299kts
11-Feb-21 20:06 40.297024 -121.707188 182 20912ft 298kts
11-Feb-21 20:06 40.228094 -121.701250 182 20914ft 298kts
11-Feb-21 20:07 40.146008 -121.694191 182 20981ft 296kts
11-Feb-21 20:08 40.063800 -121.687151 182 20826ft 300kts
11-Feb-21 20:09 39.982084 -121.680153 182 19589ft 305kts
11-Feb-21 20:10 39.907210 -121.673732 183 18351ft 288kts
11-Feb-21 20:11 39.837169 -121.667753 184 17215ft 269kts
11-Feb-21 20:12 39.772825 -121.662258 184 16287ft 245kts
11-Feb-21 20:13 39.715925 -121.657388 186 15293ft 206kts
11-Feb-21 20:14 39.669526 -121.653388 189 14569ft 162kts
11-Feb-21 20:15 39.629783 -121.650064 189 13397ft 168kts
11-Feb-21 20:16 39.591118 -121.646637 190 12742ft 138kts
11-Feb-21 20:17 39.559060 -121.643946 192 12285ft 120kts
11-Feb-21 20:18 39.529142 -121.641461 190 11828ft 115kts
11-Feb-21 20:19 39.497266 -121.638760 191 11328ft 110kts
11-Feb-21 20:20 39.467194 -121.636254 191 10804ft 110kts
11-Feb-21 20:21 39.433089 -121.633471 189 10008ft 124kts
11-Feb-21 20:22 39.399877 -121.630626 188 9491ft 115kts
11-Feb-21 20:23 39.369220 -121.628061 188 9063ft 106kts
11-Feb-21 20:24 39.346402 -121.626187 188 8859ft 105kts
11-Feb-21 20:25 39.318907 -121.623899 187 8694ft 103kts
11-Feb-21 20:26 39.292338 -121.621696 187 8461ft 100kts
11-Feb-21 20:27 39.266921 -121.619535 187 8303ft 96kts
11-Feb-21 20:28 39.240297 -121.617274 187 8128ft 82kts
11-Feb-21 20:29 39.217609 -121.615450 186 7699ft 96kts
11-Feb-21 20:30 39.197263 -121.613798 184 7375ft 92kts
11-Feb-21 20:31 39.177828 -121.612114 187 7306ft 74kts
11-Feb-21 20:32 39.160220 -121.610287 185 7097ft 77kts
11-Feb-21 20:33 39.142201 -121.608571 183 6938ft 100kts
11-Feb-21 20:34 39.111321 -121.605826 180 6133ft 149kts
11-Feb-21 20:35 39.053439 -121.599255 172 4558ft 166kts
11-Feb-21 20:36 38.998311 -121.594024 184 3370ft 160kts
11-Feb-21 20:37 38.952241 -121.597753 175 2457ft 155kts
11-Feb-21 20:38 38.910208 -121.597681 176 1875ft 139kts
11-Feb-21 20:39 38.871298 -121.598649 175 1911ft 139kts
11-Feb-21 20:40 38.834596 -121.599096 180 1814ft 115kts
11-Feb-21 20:41 38.802458 -121.599973 173 1750ft 114kts
11-Feb-21 20:42 38.767901 -121.598761 179 1088ft 140kts
11-Feb-21 20:43 38.731727 -121.600883 179 529ft 127kts
11-Feb-21 20:44 38.705018 -121.601126 179 30ft 77kts
11-Feb-21 20:45 38.697063 -121.600464 92 21ft 7kts
11-Feb-21 20:46 38.696539 -121.598636 177 24ft 12kts
11-Feb-21 20:47 38.691163 -121.598727 176 23ft 25kts
11-Feb-21 20:48 38.684286 -121.598831 181 21ft 18kts
11-Feb-21 20:49 38.683723 -121.596066 134 21ft 3kts
11-Feb-21 20:50 38.683313 -121.596346 271 21ft 0kts

Navigation Log

Ident Type
Flight plan parsing failed, navigation log unavailable